sensor_id;sensor_type;location;lat;lon;timestamp;pressure;altitude;pressure_sealevel;temperature;humidity
52361;BME280;38294;42.966;1.608;2022-12-10T03:25:41;96016.78;;;8.61;100.00
52361;BME280;38294;42.966;1.608;2022-12-10T03:28:07;96018.34;;;8.59;100.00
52361;BME280;38294;42.966;1.608;2022-12-10T03:30:35;96008.06;;;8.45;100.00
52361;BME280;38294;42.966;1.608;2022-12-10T03:33:03;96017.16;;;8.60;100.00
52361;BME280;38294;42.966;1.608;2022-12-10T03:35:30;96019.75;;;8.46;99.73
52361;BME280;38294;42.966;1.608;2022-12-10T03:37:56;96020.81;;;8.74;98.69
52361;BME280;38294;42.966;1.608;2022-12-10T03:40:24;96016.75;;;8.98;97.09
52361;BME280;38294;42.966;1.608;2022-12-10T03:42:50;96021.38;;;8.94;96.57
52361;BME280;38294;42.966;1.608;2022-12-10T03:45:15;96021.13;;;8.66;99.50
52361;BME280;38294;42.966;1.608;2022-12-10T03:47:42;96013.13;;;8.87;98.33
52361;BME280;38294;42.966;1.608;2022-12-10T03:50:08;96023.66;;;8.85;97.59
52361;BME280;38294;42.966;1.608;2022-12-10T03:52:34;96016.59;;;9.35;95.61
52361;BME280;38294;42.966;1.608;2022-12-10T03:54:59;96025.22;;;8.89;93.91
52361;BME280;38294;42.966;1.608;2022-12-10T03:57:25;96028.06;;;9.00;93.20
52361;BME280;38294;42.966;1.608;2022-12-10T03:59:51;96032.94;;;9.28;91.86
52361;BME280;38294;42.966;1.608;2022-12-10T04:02:16;96032.16;;;9.24;92.20
52361;BME280;38294;42.966;1.608;2022-12-10T04:04:42;96040.44;;;9.38;91.40
52361;BME280;38294;42.966;1.608;2022-12-10T04:07:07;96040.25;;;9.13;91.69
52361;BME280;38294;42.966;1.608;2022-12-10T04:09:33;96036.06;;;9.26;90.74
52361;BME280;38294;42.966;1.608;2022-12-10T04:11:59;96040.75;;;9.26;89.51
52361;BME280;38294;42.966;1.608;2022-12-10T04:14:25;96047.09;;;9.44;87.88
52361;BME280;38294;42.966;1.608;2022-12-10T04:17:10;96047.25;;;9.65;87.61
52361;BME280;38294;42.966;1.608;2022-12-10T04:19:36;96051.78;;;9.43;88.11
52361;BME280;38294;42.966;1.608;2022-12-10T04:22:02;96042.47;;;9.48;87.95
52361;BME280;38294;42.966;1.608;2022-12-10T04:24:46;96051.50;;;9.56;87.37
52361;BME280;38294;42.966;1.608;2022-12-10T04:27:32;96053.47;;;9.04;90.26
52361;BME280;38294;42.966;1.608;2022-12-10T04:29:59;96052.59;;;8.96;89.25
52361;BME280;38294;42.966;1.608;2022-12-10T04:32:27;96058.09;;;9.00;89.24
52361;BME280;38294;42.966;1.608;2022-12-10T04:34:53;96057.34;;;9.03;91.21
52361;BME280;38294;42.966;1.608;2022-12-10T04:37:19;96056.97;;;8.64;92.56
52361;BME280;38294;42.966;1.608;2022-12-10T04:39:45;96055.13;;;8.72;91.72
52361;BME280;38294;42.966;1.608;2022-12-10T04:42:11;96052.91;;;8.48;93.96
52361;BME280;38294;42.966;1.608;2022-12-10T04:44:37;96063.44;;;8.86;92.67
52361;BME280;38294;42.966;1.608;2022-12-10T04:47:04;96068.88;;;8.86;92.10
52361;BME280;38294;42.966;1.608;2022-12-10T04:49:30;96069.47;;;9.06;90.39
52361;BME280;38294;42.966;1.608;2022-12-10T04:51:55;96072.72;;;8.78;90.96
52361;BME280;38294;42.966;1.608;2022-12-10T04:54:22;96072.44;;;8.90;91.98
52361;BME280;38294;42.966;1.608;2022-12-10T04:56:48;96078.47;;;8.69;92.69
52361;BME280;38294;42.966;1.608;2022-12-10T04:59:14;96079.22;;;8.66;90.89
52361;BME280;38294;42.966;1.608;2022-12-10T05:01:40;96090.06;;;8.56;91.04
52361;BME280;38294;42.966;1.608;2022-12-10T05:04:09;96090.84;;;8.96;90.35
52361;BME280;38294;42.966;1.608;2022-12-10T05:06:35;96092.59;;;8.75;91.51
52361;BME280;38294;42.966;1.608;2022-12-10T05:09:01;96101.03;;;8.29;93.00
52361;BME280;38294;42.966;1.608;2022-12-10T05:11:29;96095.34;;;8.41;93.92
52361;BME280;38294;42.966;1.608;2022-12-10T05:13:55;96093.56;;;8.60;93.30
52361;BME280;38294;42.966;1.608;2022-12-10T05:16:24;96102.38;;;8.79;92.17
52361;BME280;38294;42.966;1.608;2022-12-10T05:18:50;96112.13;;;8.80;91.53
52361;BME280;38294;42.966;1.608;2022-12-10T05:21:18;96118.31;;;8.40;93.82
52361;BME280;38294;42.966;1.608;2022-12-10T05:23:47;96117.06;;;8.34;94.02
52361;BME280;38294;42.966;1.608;2022-12-10T05:26:21;96118.03;;;8.19;94.68
52361;BME280;38294;42.966;1.608;2022-12-10T05:28:52;96123.09;;;8.21;95.13
52361;BME280;38294;42.966;1.608;2022-12-10T05:31:23;96117.28;;;8.22;94.03
52361;BME280;38294;42.966;1.608;2022-12-10T05:33:50;96123.72;;;8.33;93.64
52361;BME280;38294;42.966;1.608;2022-12-10T05:36:19;96128.81;;;8.38;93.81
52361;BME280;38294;42.966;1.608;2022-12-10T05:38:46;96133.03;;;8.32;92.49
52361;BME280;38294;42.966;1.608;2022-12-10T05:41:15;96138.16;;;8.37;93.47
52361;BME280;38294;42.966;1.608;2022-12-10T05:43:42;96131.81;;;8.00;94.09
52361;BME280;38294;42.966;1.608;2022-12-10T05:46:19;96137.34;;;8.33;92.42
52361;BME280;38294;42.966;1.608;2022-12-10T05:48:45;96149.38;;;8.03;94.95
52361;BME280;38294;42.966;1.608;2022-12-10T05:51:14;96143.63;;;7.81;96.69
52361;BME280;38294;42.966;1.608;2022-12-10T05:53:41;96148.13;;;7.70;98.28
52361;BME280;38294;42.966;1.608;2022-12-10T05:56:13;96153.94;;;7.43;97.10
52361;BME280;38294;42.966;1.608;2022-12-10T05:58:42;96136.13;;;7.75;98.55
52361;BME280;38294;42.966;1.608;2022-12-10T06:01:13;96154.66;;;7.66;97.20
52361;BME280;38294;42.966;1.608;2022-12-10T06:03:39;96147.09;;;7.78;94.74
52361;BME280;38294;42.966;1.608;2022-12-10T06:06:05;96149.31;;;7.73;94.31
52361;BME280;38294;42.966;1.608;2022-12-10T06:08:31;96156.44;;;7.55;94.55
52361;BME280;38294;42.966;1.608;2022-12-10T06:11:01;96152.38;;;7.68;93.32
52361;BME280;38294;42.966;1.608;2022-12-10T06:13:27;96158.03;;;7.56;92.48
52361;BME280;38294;42.966;1.608;2022-12-10T06:15:52;96172.75;;;7.28;94.71
52361;BME280;38294;42.966;1.608;2022-12-10T06:18:18;96165.66;;;7.47;91.98
52361;BME280;38294;42.966;1.608;2022-12-10T06:20:43;96168.63;;;7.87;91.62
52361;BME280;38294;42.966;1.608;2022-12-10T06:23:09;96163.28;;;7.68;90.65
52361;BME280;38294;42.966;1.608;2022-12-10T06:25:37;96168.94;;;7.56;93.49
52361;BME280;38294;42.966;1.608;2022-12-10T06:28:03;96173.53;;;7.52;92.44
52361;BME280;38294;42.966;1.608;2022-12-10T06:30:29;96184.75;;;7.73;92.26
52361;BME280;38294;42.966;1.608;2022-12-10T06:32:55;96188.19;;;7.44;92.86
52361;BME280;38294;42.966;1.608;2022-12-10T06:35:20;96190.47;;;7.64;93.63
52361;BME280;38294;42.966;1.608;2022-12-10T06:37:46;96206.56;;;7.27;95.91
52361;BME280;38294;42.966;1.608;2022-12-10T06:40:11;96215.53;;;7.28;94.33
52361;BME280;38294;42.966;1.608;2022-12-10T06:42:37;96214.81;;;7.54;93.17
52361;BME280;38294;42.966;1.608;2022-12-10T06:45:03;96232.38;;;7.33;91.68
52361;BME280;38294;42.966;1.608;2022-12-10T06:47:29;96233.75;;;7.24;89.48
52361;BME280;38294;42.966;1.608;2022-12-10T06:49:55;96232.94;;;7.43;88.36
52361;BME280;38294;42.966;1.608;2022-12-10T06:52:21;96254.50;;;7.09;86.28
52361;BME280;38294;42.966;1.608;2022-12-10T06:54:46;96267.69;;;7.07;85.07
52361;BME280;38294;42.966;1.608;2022-12-10T06:57:12;96249.63;;;7.41;84.65
52361;BME280;38294;42.966;1.608;2022-12-10T06:59:37;96253.47;;;7.59;81.93
52361;BME280;38294;42.966;1.608;2022-12-10T07:02:03;96255.53;;;7.43;81.75
52361;BME280;38294;42.966;1.608;2022-12-10T07:04:28;96267.28;;;7.28;81.08
52361;BME280;38294;42.966;1.608;2022-12-10T07:06:54;96258.53;;;7.38;80.66
52361;BME280;38294;42.966;1.608;2022-12-10T07:09:20;96276.84;;;6.99;81.21
52361;BME280;38294;42.966;1.608;2022-12-10T07:11:45;96291.75;;;7.05;82.06
52361;BME280;38294;42.966;1.608;2022-12-10T07:14:15;96282.38;;;7.03;81.67
52361;BME280;38294;42.966;1.608;2022-12-10T07:16:41;96293.19;;;6.80;80.06
52361;BME280;38294;42.966;1.608;2022-12-10T07:19:09;96288.97;;;6.82;78.80
52361;BME280;38294;42.966;1.608;2022-12-10T07:21:36;96300.06;;;6.74;79.49
52361;BME280;38294;42.966;1.608;2022-12-10T07:24:07;96303.03;;;6.50;79.68
52361;BME280;38294;42.966;1.608;2022-12-10T07:26:35;96301.03;;;6.66;78.53
52361;BME280;38294;42.966;1.608;2022-12-10T07:29:03;96307.66;;;6.65;76.86
52361;BME280;38294;42.966;1.608;2022-12-10T07:31:29;96315.78;;;6.46;74.60
52361;BME280;38294;42.966;1.608;2022-12-10T07:37:30;96331.19;;;6.57;73.45
52361;BME280;38294;42.966;1.608;2022-12-10T07:39:55;96336.00;;;6.13;71.97
52361;BME280;38294;42.966;1.608;2022-12-10T07:42:21;96332.56;;;6.32;71.70
52361;BME280;38294;42.966;1.608;2022-12-10T07:44:48;96349.72;;;6.52;70.71
52361;BME280;38294;42.966;1.608;2022-12-10T07:47:13;96345.56;;;6.07;71.53
52361;BME280;38294;42.966;1.608;2022-12-10T07:49:39;96352.56;;;5.93;71.96
52361;BME280;38294;42.966;1.608;2022-12-10T07:52:05;96361.13;;;5.79;71.56
52361;BME280;38294;42.966;1.608;2022-12-10T07:54:35;96369.44;;;5.70;73.28
52361;BME280;38294;42.966;1.608;2022-12-10T07:57:03;96379.94;;;5.28;73.16
52361;BME280;38294;42.966;1.608;2022-12-10T07:59:29;96383.19;;;5.62;73.76
52361;BME280;38294;42.966;1.608;2022-12-10T08:01:56;96395.09;;;5.29;73.55
52361;BME280;38294;42.966;1.608;2022-12-10T08:04:21;96422.38;;;5.21;72.92
52361;BME280;38294;42.966;1.608;2022-12-10T08:06:47;96420.81;;;5.20;72.77
52361;BME280;38294;42.966;1.608;2022-12-10T08:09:12;96408.84;;;5.09;72.02
52361;BME280;38294;42.966;1.608;2022-12-10T08:11:38;96439.13;;;5.23;73.68
52361;BME280;38294;42.966;1.608;2022-12-10T08:14:04;96430.25;;;4.86;73.67
52361;BME280;38294;42.966;1.608;2022-12-10T08:16:30;96426.69;;;5.22;73.08
52361;BME280;38294;42.966;1.608;2022-12-10T08:19:00;96427.59;;;5.54;70.89
52361;BME280;38294;42.966;1.608;2022-12-10T08:21:28;96414.19;;;5.61;71.02
52361;BME280;38294;42.966;1.608;2022-12-10T08:23:55;96433.59;;;5.47;71.56
52361;BME280;38294;42.966;1.608;2022-12-10T08:26:23;96431.25;;;5.46;69.79
52361;BME280;38294;42.966;1.608;2022-12-10T08:28:50;96440.97;;;5.74;70.12
52361;BME280;38294;42.966;1.608;2022-12-10T08:31:17;96445.34;;;5.91;67.67
52361;BME280;38294;42.966;1.608;2022-12-10T08:33:43;96432.69;;;5.15;68.43
52361;BME280;38294;42.966;1.608;2022-12-10T08:36:12;96448.28;;;5.58;64.61
52361;BME280;38294;42.966;1.608;2022-12-10T08:38:38;96454.91;;;5.45;64.60
52361;BME280;38294;42.966;1.608;2022-12-10T08:41:16;96454.66;;;6.06;64.21
52361;BME280;38294;42.966;1.608;2022-12-10T08:43:42;96471.19;;;5.45;63.13
52361;BME280;38294;42.966;1.608;2022-12-10T08:46:08;96464.53;;;5.43;63.67
52361;BME280;38294;42.966;1.608;2022-12-10T08:48:35;96476.47;;;5.54;60.70
52361;BME280;38294;42.966;1.608;2022-12-10T08:51:03;96471.56;;;5.71;60.87
52361;BME280;38294;42.966;1.608;2022-12-10T08:53:29;96464.00;;;5.65;59.57
52361;BME280;38294;42.966;1.608;2022-12-10T08:55:55;96465.81;;;5.61;57.75
52361;BME280;38294;42.966;1.608;2022-12-10T08:58:21;96476.72;;;5.49;58.23
52361;BME280;38294;42.966;1.608;2022-12-10T09:00:48;96466.84;;;5.84;57.46
52361;BME280;38294;42.966;1.608;2022-12-10T09:03:14;96461.59;;;5.63;53.84
52361;BME280;38294;42.966;1.608;2022-12-10T09:05:41;96471.34;;;5.92;55.85
52361;BME280;38294;42.966;1.608;2022-12-10T09:08:07;96474.75;;;5.61;56.22
52361;BME280;38294;42.966;1.608;2022-12-10T09:10:32;96484.78;;;5.45;55.37
52361;BME280;38294;42.966;1.608;2022-12-10T09:12:58;96490.50;;;6.11;54.88
52361;BME280;38294;42.966;1.608;2022-12-10T09:15:23;96518.06;;;5.70;54.25
52361;BME280;38294;42.966;1.608;2022-12-10T09:17:49;96493.94;;;5.80;55.48
52361;BME280;38294;42.966;1.608;2022-12-10T09:20:14;96504.66;;;6.17;57.02
52361;BME280;38294;42.966;1.608;2022-12-10T09:22:40;96511.63;;;6.02;57.05
52361;BME280;38294;42.966;1.608;2022-12-10T09:25:07;96515.97;;;6.19;56.52
52361;BME280;38294;42.966;1.608;2022-12-10T09:27:35;96521.44;;;6.50;56.46
52361;BME280;38294;42.966;1.608;2022-12-10T09:30:03;96531.63;;;5.94;57.27
52361;BME280;38294;42.966;1.608;2022-12-10T09:32:29;96528.75;;;6.03;55.95
52361;BME280;38294;42.966;1.608;2022-12-10T09:34:55;96537.69;;;5.63;57.38
52361;BME280;38294;42.966;1.608;2022-12-10T09:37:20;96527.81;;;5.71;58.38
52361;BME280;38294;42.966;1.608;2022-12-10T09:39:46;96587.94;;;5.57;59.12
52361;BME280;38294;42.966;1.608;2022-12-10T09:42:33;96553.06;;;5.71;58.52
52361;BME280;38294;42.966;1.608;2022-12-10T09:47:40;96564.69;;;5.84;56.38
52361;BME280;38294;42.966;1.608;2022-12-10T09:50:30;96590.22;;;5.55;55.31
52361;BME280;38294;42.966;1.608;2022-12-10T09:52:59;96573.22;;;5.70;54.86
52361;BME280;38294;42.966;1.608;2022-12-10T09:55:37;96564.66;;;6.24;54.01
52361;BME280;38294;42.966;1.608;2022-12-10T09:58:05;96598.94;;;5.61;54.04
52361;BME280;38294;42.966;1.608;2022-12-10T10:00:42;96577.25;;;5.89;54.04
52361;BME280;38294;42.966;1.608;2022-12-10T10:03:14;96572.09;;;6.39;55.37
52361;BME280;38294;42.966;1.608;2022-12-10T10:05:43;96573.41;;;7.39;51.87
52361;BME280;38294;42.966;1.608;2022-12-10T10:08:21;96591.16;;;6.27;52.62
52361;BME280;38294;42.966;1.608;2022-12-10T10:10:48;96581.81;;;6.12;52.07
52361;BME280;38294;42.966;1.608;2022-12-10T10:13:38;96600.75;;;6.09;53.32
52361;BME280;38294;42.966;1.608;2022-12-10T10:19:17;96582.47;;;6.49;51.88
52361;BME280;38294;42.966;1.608;2022-12-10T10:21:48;96581.97;;;6.91;50.44
52361;BME280;38294;42.966;1.608;2022-12-10T10:24:18;96584.78;;;6.35;50.92
52361;BME280;38294;42.966;1.608;2022-12-10T10:26:45;96593.53;;;6.28;52.72
52361;BME280;38294;42.966;1.608;2022-12-10T10:29:20;96587.22;;;6.24;52.45
52361;BME280;38294;42.966;1.608;2022-12-10T10:31:47;96594.47;;;6.48;51.29
52361;BME280;38294;42.966;1.608;2022-12-10T10:34:19;96592.78;;;6.44;51.86
52361;BME280;38294;42.966;1.608;2022-12-10T10:36:46;96581.16;;;7.21;50.39
52361;BME280;38294;42.966;1.608;2022-12-10T10:41:47;96587.16;;;7.27;48.24
52361;BME280;38294;42.966;1.608;2022-12-10T10:44:22;96597.91;;;6.61;48.66
52361;BME280;38294;42.966;1.608;2022-12-10T10:46:51;96575.91;;;6.22;49.51
52361;BME280;38294;42.966;1.608;2022-12-10T10:51:51;96573.59;;;7.15;47.58
52361;BME280;38294;42.966;1.608;2022-12-10T10:57:04;96591.81;;;7.11;49.04
52361;BME280;38294;42.966;1.608;2022-12-10T10:59:34;96570.53;;;7.16;47.56
52361;BME280;38294;42.966;1.608;2022-12-10T11:02:29;96573.81;;;7.57;48.17
52361;BME280;38294;42.966;1.608;2022-12-10T11:04:56;96575.44;;;8.15;45.96
52361;BME280;38294;42.966;1.608;2022-12-10T11:07:36;96571.00;;;8.26;44.93
52361;BME280;38294;42.966;1.608;2022-12-10T11:10:23;96578.63;;;8.17;45.57
52361;BME280;38294;42.966;1.608;2022-12-10T11:13:20;96576.41;;;8.42;45.54
52361;BME280;38294;42.966;1.608;2022-12-10T11:16:39;96580.03;;;8.11;47.62
52361;BME280;38294;42.966;1.608;2022-12-10T11:18:42;96574.59;;;6.91;49.00
52361;BME280;38294;42.966;1.608;2022-12-10T11:21:18;96564.75;;;7.02;48.89
52361;BME280;38294;42.966;1.608;2022-12-10T11:23:54;96549.88;;;7.31;48.08
52361;BME280;38294;42.966;1.608;2022-12-10T11:32:00;96552.63;;;7.00;48.40
52361;BME280;38294;42.966;1.608;2022-12-10T11:34:38;96567.88;;;6.57;49.48
52361;BME280;38294;42.966;1.608;2022-12-10T11:42:38;96571.00;;;6.71;49.11
52361;BME280;38294;42.966;1.608;2022-12-10T11:45:46;96572.41;;;6.38;49.15
52361;BME280;38294;42.966;1.608;2022-12-10T11:51:50;96555.25;;;7.12;48.76
52361;BME280;38294;42.966;1.608;2022-12-10T12:05:27;96562.00;;;6.12;49.67
52361;BME280;38294;42.966;1.608;2022-12-10T12:08:11;96581.09;;;6.43;49.89
52361;BME280;38294;42.966;1.608;2022-12-10T12:10:53;96560.44;;;7.17;47.93
52361;BME280;38294;42.966;1.608;2022-12-10T12:16:09;96589.63;;;7.01;46.97
52361;BME280;38294;42.966;1.608;2022-12-10T12:18:44;96558.78;;;7.82;44.85
52361;BME280;38294;42.966;1.608;2022-12-10T12:21:14;96561.00;;;6.91;46.72
52361;BME280;38294;42.966;1.608;2022-12-10T12:23:49;96558.41;;;6.82;46.27
52361;BME280;38294;42.966;1.608;2022-12-10T12:26:35;96555.19;;;6.77;47.03
52361;BME280;38294;42.966;1.608;2022-12-10T12:29:33;96556.59;;;6.86;47.35
52361;BME280;38294;42.966;1.608;2022-12-10T12:37:12;96543.75;;;7.18;46.09
52361;BME280;38294;42.966;1.608;2022-12-10T12:39:48;96565.53;;;6.71;47.08
52361;BME280;38294;42.966;1.608;2022-12-10T12:45:41;96555.06;;;6.58;47.05
52361;BME280;38294;42.966;1.608;2022-12-10T12:48:29;96563.56;;;6.56;47.15
52361;BME280;38294;42.966;1.608;2022-12-10T12:51:05;96553.38;;;6.38;45.30
52361;BME280;38294;42.966;1.608;2022-12-10T12:53:33;96560.09;;;6.71;45.65
52361;BME280;38294;42.966;1.608;2022-12-10T12:56:12;96557.00;;;6.73;45.29
52361;BME280;38294;42.966;1.608;2022-12-10T12:59:01;96563.47;;;6.53;46.08
52361;BME280;38294;42.966;1.608;2022-12-10T13:04:16;96559.91;;;6.49;46.84
52361;BME280;38294;42.966;1.608;2022-12-10T13:20:28;96551.28;;;7.60;46.79
52361;BME280;38294;42.966;1.608;2022-12-10T13:23:01;96561.94;;;6.83;47.37
52361;BME280;38294;42.966;1.608;2022-12-10T13:34:21;96579.50;;;5.99;46.83
52361;BME280;38294;42.966;1.608;2022-12-10T13:47:43;96568.69;;;6.89;46.34
52361;BME280;38294;42.966;1.608;2022-12-10T13:50:34;96561.09;;;5.68;46.77
52361;BME280;38294;42.966;1.608;2022-12-10T13:58:31;96566.50;;;6.20;47.17
52361;BME280;38294;42.966;1.608;2022-12-10T14:06:24;96560.97;;;5.76;48.21
52361;BME280;38294;42.966;1.608;2022-12-10T14:09:06;96578.56;;;5.55;48.65
52361;BME280;38294;42.966;1.608;2022-12-10T14:11:57;96568.69;;;5.62;48.47
52361;BME280;38294;42.966;1.608;2022-12-10T14:14:42;96566.47;;;5.52;48.99
52361;BME280;38294;42.966;1.608;2022-12-10T14:17:14;96575.00;;;5.91;48.03
52361;BME280;38294;42.966;1.608;2022-12-10T14:19:42;96584.28;;;5.90;47.97
52361;BME280;38294;42.966;1.608;2022-12-10T14:22:15;96586.28;;;5.41;48.37
52361;BME280;38294;42.966;1.608;2022-12-10T14:24:41;96583.34;;;5.46;48.69
52361;BME280;38294;42.966;1.608;2022-12-10T14:27:37;96595.28;;;5.69;47.68
52361;BME280;38294;42.966;1.608;2022-12-10T14:30:24;96599.06;;;5.52;48.53
52361;BME280;38294;42.966;1.608;2022-12-10T14:32:54;96589.94;;;5.85;48.15
52361;BME280;38294;42.966;1.608;2022-12-10T14:35:26;96600.25;;;5.79;47.67
52361;BME280;38294;42.966;1.608;2022-12-10T14:37:55;96596.97;;;5.73;46.39
52361;BME280;38294;42.966;1.608;2022-12-10T14:40:32;96600.75;;;5.45;47.33
52361;BME280;38294;42.966;1.608;2022-12-10T14:43:15;96611.28;;;5.10;48.45
52361;BME280;38294;42.966;1.608;2022-12-10T14:46:03;96608.63;;;5.74;47.88
52361;BME280;38294;42.966;1.608;2022-12-10T14:48:29;96619.34;;;5.43;47.73
52361;BME280;38294;42.966;1.608;2022-12-10T14:51:03;96610.69;;;4.92;49.50
52361;BME280;38294;42.966;1.608;2022-12-10T14:53:28;96604.94;;;5.06;50.08
52361;BME280;38294;42.966;1.608;2022-12-10T14:56:02;96593.06;;;5.35;49.78
52361;BME280;38294;42.966;1.608;2022-12-10T14:58:44;96605.06;;;5.21;50.28
52361;BME280;38294;42.966;1.608;2022-12-10T15:01:29;96600.31;;;5.30;50.17
52361;BME280;38294;42.966;1.608;2022-12-10T15:03:57;96618.16;;;5.07;50.17
52361;BME280;38294;42.966;1.608;2022-12-10T15:06:24;96604.34;;;4.88;49.83
52361;BME280;38294;42.966;1.608;2022-12-10T15:08:54;96613.41;;;5.04;49.32
52361;BME280;38294;42.966;1.608;2022-12-10T15:11:21;96621.91;;;5.03;48.63
52361;BME280;38294;42.966;1.608;2022-12-10T15:13:52;96619.19;;;5.03;48.87
52361;BME280;38294;42.966;1.608;2022-12-10T15:16:39;96610.72;;;5.28;48.47
52361;BME280;38294;42.966;1.608;2022-12-10T15:19:08;96614.09;;;4.77;49.05
52361;BME280;38294;42.966;1.608;2022-12-10T15:21:41;96619.03;;;4.75;48.60
52361;BME280;38294;42.966;1.608;2022-12-10T15:24:17;96624.06;;;5.09;49.45
52361;BME280;38294;42.966;1.608;2022-12-10T15:26:48;96623.59;;;4.83;50.72
52361;BME280;38294;42.966;1.608;2022-12-10T15:32:00;96629.56;;;4.76;50.11
52361;BME280;38294;42.966;1.608;2022-12-10T15:34:28;96636.06;;;4.51;50.79
52361;BME280;38294;42.966;1.608;2022-12-10T15:36:56;96635.84;;;4.56;50.80
52361;BME280;38294;42.966;1.608;2022-12-10T15:39:44;96639.31;;;4.45;50.92
52361;BME280;38294;42.966;1.608;2022-12-10T15:44:59;96636.13;;;4.43;51.53
52361;BME280;38294;42.966;1.608;2022-12-10T15:47:26;96640.47;;;4.56;51.62
52361;BME280;38294;42.966;1.608;2022-12-10T15:49:53;96643.09;;;4.11;52.10
52361;BME280;38294;42.966;1.608;2022-12-10T15:52:24;96649.09;;;4.37;52.23
52361;BME280;38294;42.966;1.608;2022-12-10T15:54:52;96647.19;;;4.38;52.25
52361;BME280;38294;42.966;1.608;2022-12-10T15:57:21;96655.50;;;4.53;52.00
52361;BME280;38294;42.966;1.608;2022-12-10T15:59:49;96660.88;;;4.74;51.14
52361;BME280;38294;42.966;1.608;2022-12-10T16:07:34;96654.41;;;4.34;52.98
52361;BME280;38294;42.966;1.608;2022-12-10T16:10:00;96657.25;;;4.70;52.47
52361;BME280;38294;42.966;1.608;2022-12-10T16:12:26;96659.38;;;4.64;52.30
52361;BME280;38294;42.966;1.608;2022-12-10T16:14:54;96665.75;;;4.48;52.33
52361;BME280;38294;42.966;1.608;2022-12-10T16:17:26;96667.47;;;4.52;52.86
52361;BME280;38294;42.966;1.608;2022-12-10T16:19:59;96673.81;;;4.56;52.02
52361;BME280;38294;42.966;1.608;2022-12-10T16:22:26;96671.19;;;4.27;52.76
52361;BME280;38294;42.966;1.608;2022-12-10T16:24:51;96675.66;;;4.64;52.28
52361;BME280;38294;42.966;1.608;2022-12-10T16:27:17;96681.28;;;4.59;52.55
52361;BME280;38294;42.966;1.608;2022-12-10T16:29:43;96675.81;;;4.47;53.80
52361;BME280;38294;42.966;1.608;2022-12-10T16:32:10;96676.78;;;4.43;53.81
52361;BME280;38294;42.966;1.608;2022-12-10T16:34:36;96680.53;;;4.38;53.90
52361;BME280;38294;42.966;1.608;2022-12-10T16:37:01;96681.94;;;4.03;54.77
52361;BME280;38294;42.966;1.608;2022-12-10T16:39:27;96679.72;;;4.38;54.43
52361;BME280;38294;42.966;1.608;2022-12-10T16:41:54;96673.28;;;4.09;56.04
52361;BME280;38294;42.966;1.608;2022-12-10T16:44:20;96680.16;;;4.07;56.00
52361;BME280;38294;42.966;1.608;2022-12-10T16:46:45;96676.03;;;4.01;56.35
52361;BME280;38294;42.966;1.608;2022-12-10T16:49:11;96687.47;;;4.06;56.28
52361;BME280;38294;42.966;1.608;2022-12-10T16:51:37;96694.34;;;4.04;57.03
52361;BME280;38294;42.966;1.608;2022-12-10T16:54:03;96715.34;;;3.86;56.55
52361;BME280;38294;42.966;1.608;2022-12-10T16:56:29;96717.19;;;3.94;56.03
52361;BME280;38294;42.966;1.608;2022-12-10T16:58:55;96722.38;;;3.79;55.39
52361;BME280;38294;42.966;1.608;2022-12-10T17:01:26;96718.81;;;3.66;55.90
52361;BME280;38294;42.966;1.608;2022-12-10T17:03:57;96733.59;;;3.68;55.54
52361;BME280;38294;42.966;1.608;2022-12-10T17:06:24;96733.13;;;3.96;55.16
52361;BME280;38294;42.966;1.608;2022-12-10T17:08:49;96717.47;;;3.81;55.36
52361;BME280;38294;42.966;1.608;2022-12-10T17:11:27;96730.09;;;3.97;55.96
52361;BME280;38294;42.966;1.608;2022-12-10T17:16:49;96716.00;;;3.83;56.55
52361;BME280;38294;42.966;1.608;2022-12-10T17:19:15;96718.25;;;4.02;56.69
52361;BME280;38294;42.966;1.608;2022-12-10T17:21:41;96735.25;;;3.61;56.54
52361;BME280;38294;42.966;1.608;2022-12-10T17:24:07;96732.63;;;3.73;57.39
52361;BME280;38294;42.966;1.608;2022-12-10T17:26:34;96734.59;;;3.64;57.60
52361;BME280;38294;42.966;1.608;2022-12-10T17:29:26;96732.38;;;4.16;56.44
52361;BME280;38294;42.966;1.608;2022-12-10T17:31:53;96716.53;;;3.77;58.68
52361;BME280;38294;42.966;1.608;2022-12-10T17:34:18;96724.00;;;3.80;58.38
52361;BME280;38294;42.966;1.608;2022-12-10T17:36:46;96728.59;;;3.79;58.21
52361;BME280;38294;42.966;1.608;2022-12-10T17:39:17;96735.75;;;3.54;60.64
52361;BME280;38294;42.966;1.608;2022-12-10T17:41:44;96739.97;;;3.35;60.86
52361;BME280;38294;42.966;1.608;2022-12-10T17:44:09;96732.31;;;3.37;60.01
52361;BME280;38294;42.966;1.608;2022-12-10T17:46:35;96731.44;;;3.15;61.68
52361;BME280;38294;42.966;1.608;2022-12-10T17:49:01;96724.63;;;3.09;61.08
52361;BME280;38294;42.966;1.608;2022-12-10T17:51:27;96718.06;;;3.10;61.37
52361;BME280;38294;42.966;1.608;2022-12-10T17:53:53;96741.16;;;3.16;61.01
52361;BME280;38294;42.966;1.608;2022-12-10T17:56:21;96734.25;;;3.28;60.92
52361;BME280;38294;42.966;1.608;2022-12-10T17:58:48;96733.16;;;3.29;60.18
52361;BME280;38294;42.966;1.608;2022-12-10T18:01:16;96735.25;;;3.14;59.67
52361;BME280;38294;42.966;1.608;2022-12-10T18:03:42;96733.97;;;3.21;59.31
52361;BME280;38294;42.966;1.608;2022-12-10T18:06:13;96736.03;;;3.24;59.97
52361;BME280;38294;42.966;1.608;2022-12-10T18:08:40;96740.97;;;3.22;60.57
52361;BME280;38294;42.966;1.608;2022-12-10T18:11:06;96728.31;;;3.43;59.12
52361;BME280;38294;42.966;1.608;2022-12-10T18:13:31;96728.75;;;3.15;58.84
52361;BME280;38294;42.966;1.608;2022-12-10T18:15:57;96725.09;;;3.11;58.84
52361;BME280;38294;42.966;1.608;2022-12-10T18:18:23;96719.25;;;2.92;59.99
52361;BME280;38294;42.966;1.608;2022-12-10T18:20:48;96718.56;;;3.12;59.66
52361;BME280;38294;42.966;1.608;2022-12-10T18:23:14;96732.66;;;3.27;61.27
52361;BME280;38294;42.966;1.608;2022-12-10T18:25:41;96730.59;;;3.24;59.96
52361;BME280;38294;42.966;1.608;2022-12-10T18:31:03;96735.56;;;3.22;63.00
52361;BME280;38294;42.966;1.608;2022-12-10T18:33:36;96735.63;;;2.96;63.90
52361;BME280;38294;42.966;1.608;2022-12-10T18:36:02;96732.28;;;2.99;63.67
52361;BME280;38294;42.966;1.608;2022-12-10T18:38:28;96743.28;;;2.85;62.78
52361;BME280;38294;42.966;1.608;2022-12-10T18:40:54;96738.31;;;3.04;60.83
52361;BME280;38294;42.966;1.608;2022-12-10T18:43:19;96732.59;;;3.06;61.09
52361;BME280;38294;42.966;1.608;2022-12-10T18:45:45;96725.84;;;2.74;61.92